Time;durP1;ratioP1;P1;durP2;ratioP2;P2;SDS_P1;SDS_P2;PMS_P1;PMS_P2;Temp;Humidity;BMP_temperature;BMP_pressure;BME280_temperature;BME280_humidity;BME280_pressure;Samples;Min_cycle;Max_cycle;Signal;HPM_P1;HPM_P2
2023/05/24 00:00:25;;;;;;;;;;;10.40;99.00;;;;;;8376981;28;19932;-72
2023/05/24 00:04:28;;;;;;;;;;;10.30;99.00;;;;;;8383971;28;19952;-72
2023/05/24 00:08:30;;;;;;;;;;;10.30;99.00;;;;;;8384998;28;19924;-72
2023/05/24 00:12:32;;;;;;;;;;;10.30;99.00;;;;;;8384731;28;20273;-72
2023/05/24 00:16:35;;;;;;;;;;;10.20;99.00;;;;;;8381014;28;20391;-72
2023/05/24 00:20:36;;;;;;;;;;;10.20;98.90;;;;;;8383208;28;19928;-72
2023/05/24 00:24:39;;;;;;;;;;;10.10;98.80;;;;;;8384122;28;19931;-72
2023/05/24 00:28:40;;;;;;;;;;;10.00;98.70;;;;;;8394461;28;19925;-72
2023/05/24 00:32:42;;;;;;;;;;;9.90;99.20;;;;;;8390998;28;19932;-72
2023/05/24 00:36:44;;;;;;;;;;;9.90;99.20;;;;;;8370653;28;20331;-72
2023/05/24 00:40:45;;;;;;;;;;;9.80;99.10;;;;;;8383324;28;19935;-72
2023/05/24 00:44:47;;;;;;;;;;;9.80;99.10;;;;;;8378443;28;19928;-72
2023/05/24 00:48:49;;;;;;;;;;;9.70;99.00;;;;;;8390598;28;19935;-72
2023/05/24 00:52:51;;;;;;;;;;;9.60;99.00;;;;;;8387880;28;20038;-72
2023/05/24 00:56:53;;;;;;;;;;;9.60;99.00;;;;;;8367476;28;19986;-72
2023/05/24 01:00:58;;;;;;;;;;;9.50;99.10;;;;;;8394987;28;19928;-72
2023/05/24 01:05:00;;;;;;;;;;;9.40;99.10;;;;;;8364750;28;19924;-72
2023/05/24 01:09:01;;;;;;;;;;;9.40;99.20;;;;;;8385098;28;19931;-73
2023/05/24 01:13:07;;;;;;;;;;;9.50;99.20;;;;;;8365450;28;19994;-72
2023/05/24 01:17:13;;;;;;;;;;;9.50;99.00;;;;;;8384800;28;20276;-72
2023/05/24 01:21:37;;;;;;;;;;;9.40;98.90;;;;;;8369617;28;19939;-72
2023/05/24 01:25:52;;;;;;;;;;;9.40;98.80;;;;;;8372324;28;19924;-72
2023/05/24 01:29:55;;;;;;;;;;;9.30;98.80;;;;;;8359623;28;19982;-72
2023/05/24 01:33:57;;;;;;;;;;;9.20;98.90;;;;;;8383123;28;19985;-72
2023/05/24 01:37:58;;;;;;;;;;;9.10;99.00;;;;;;8381408;28;19948;-72
2023/05/24 01:42:00;;;;;;;;;;;9.10;99.00;;;;;;8386710;28;20324;-72
2023/05/24 01:46:02;;;;;;;;;;;9.00;98.90;;;;;;8376396;28;19925;-72
2023/05/24 01:50:09;;;;;;;;;;;9.00;98.90;;;;;;8388216;28;19928;-72
2023/05/24 01:54:12;;;;;;;;;;;8.90;98.80;;;;;;8387489;28;19932;-72
2023/05/24 01:58:15;;;;;;;;;;;8.80;98.80;;;;;;8370072;28;20322;-72
2023/05/24 02:02:17;;;;;;;;;;;8.80;98.80;;;;;;8386343;28;20113;-72
2023/05/24 02:06:19;;;;;;;;;;;8.70;98.80;;;;;;8372579;28;19943;-72
2023/05/24 02:10:20;;;;;;;;;;;8.70;98.80;;;;;;8376866;28;20475;-72
2023/05/24 02:14:23;;;;;;;;;;;8.70;98.70;;;;;;8389082;28;19982;-72
2023/05/24 02:18:24;;;;;;;;;;;8.60;98.60;;;;;;8385814;28;19928;-72
2023/05/24 02:22:27;;;;;;;;;;;8.50;98.50;;;;;;8365964;28;20227;-72
2023/05/24 02:26:29;;;;;;;;;;;8.50;98.50;;;;;;8369211;28;19935;-72
2023/05/24 02:30:30;;;;;;;;;;;8.50;98.50;;;;;;8371851;28;19969;-72
2023/05/24 02:34:32;;;;;;;;;;;8.50;98.50;;;;;;8375234;28;19925;-72
2023/05/24 02:38:35;;;;;;;;;;;8.40;98.60;;;;;;8385843;28;19924;-72
2023/05/24 02:42:37;;;;;;;;;;;8.40;98.60;;;;;;8383701;28;19932;-72
2023/05/24 02:46:39;;;;;;;;;;;8.30;98.70;;;;;;8377642;28;20437;-72
2023/05/24 02:50:41;;;;;;;;;;;8.30;98.70;;;;;;8385274;28;19931;-72
2023/05/24 02:54:42;;;;;;;;;;;8.20;98.70;;;;;;8387667;28;19948;-72
2023/05/24 02:58:44;;;;;;;;;;;8.20;98.80;;;;;;8386765;28;19947;-71
2023/05/24 03:02:46;;;;;;;;;;;8.10;98.80;;;;;;8395648;28;19970;-72
2023/05/24 03:06:48;;;;;;;;;;;8.10;98.80;;;;;;8386701;28;19933;-72
2023/05/24 03:10:50;;;;;;;;;;;8.10;98.80;;;;;;8384117;28;19932;-72
2023/05/24 03:14:51;;;;;;;;;;;8.00;98.70;;;;;;8371540;28;19924;-72
2023/05/24 03:18:54;;;;;;;;;;;8.00;98.70;;;;;;8388644;28;20368;-72
2023/05/24 03:22:56;;;;;;;;;;;7.90;98.60;;;;;;8387460;28;19925;-72
2023/05/24 03:26:57;;;;;;;;;;;7.90;98.50;;;;;;8387078;28;19936;-72
2023/05/24 03:30:59;;;;;;;;;;;7.90;98.50;;;;;;8389828;28;20265;-72
2023/05/24 03:35:01;;;;;;;;;;;7.90;98.40;;;;;;8365735;28;19947;-72
2023/05/24 03:39:03;;;;;;;;;;;7.90;98.40;;;;;;8375454;28;19929;-72
2023/05/24 03:43:05;;;;;;;;;;;7.80;98.50;;;;;;8385588;28;19924;-72
2023/05/24 03:47:06;;;;;;;;;;;7.70;98.50;;;;;;8368522;28;19924;-72
2023/05/24 03:51:08;;;;;;;;;;;7.70;98.60;;;;;;8379254;28;19931;-72
2023/05/24 03:55:10;;;;;;;;;;;7.70;98.50;;;;;;8358359;28;19933;-72
2023/05/24 03:59:12;;;;;;;;;;;7.70;98.50;;;;;;8373822;28;19928;-71
2023/05/24 04:03:13;;;;;;;;;;;7.70;98.60;;;;;;8382800;28;19924;-72
2023/05/24 04:07:15;;;;;;;;;;;7.60;98.60;;;;;;8377137;28;19925;-72
2023/05/24 04:11:17;;;;;;;;;;;7.70;98.70;;;;;;8389530;28;19924;-72
2023/05/24 04:15:19;;;;;;;;;;;7.70;98.70;;;;;;8374301;28;19932;-72
2023/05/24 04:19:20;;;;;;;;;;;7.70;98.60;;;;;;8384068;28;19932;-71
2023/05/24 04:23:22;;;;;;;;;;;7.70;98.70;;;;;;8381836;28;19925;-72
2023/05/24 04:27:24;;;;;;;;;;;7.80;98.80;;;;;;8390194;28;20210;-72
2023/05/24 04:31:29;;;;;;;;;;;7.90;98.90;;;;;;8384679;28;20388;-72
2023/05/24 04:35:30;;;;;;;;;;;7.90;98.90;;;;;;8393014;28;19925;-72
2023/05/24 04:39:32;;;;;;;;;;;8.00;99.00;;;;;;8383284;28;19976;-72
2023/05/24 04:43:34;;;;;;;;;;;8.00;99.20;;;;;;8384892;28;19971;-72
2023/05/24 04:47:35;;;;;;;;;;;8.10;99.30;;;;;;8385191;28;19978;-72
2023/05/24 04:51:38;;;;;;;;;;;8.20;99.40;;;;;;8382215;28;20341;-72
2023/05/24 04:55:41;;;;;;;;;;;8.30;99.80;;;;;;8381757;28;19928;-72
2023/05/24 04:59:43;;;;;;;;;;;8.40;99.60;;;;;;8382625;28;19925;-72
2023/05/24 05:03:44;;;;;;;;;;;8.50;99.80;;;;;;8386095;28;19928;-72
2023/05/24 05:07:46;;;;;;;;;;;8.70;99.90;;;;;;8355733;28;19976;-72
2023/05/24 05:11:48;;;;;;;;;;;8.80;99.90;;;;;;8400813;28;20546;-72
2023/05/24 05:15:50;;;;;;;;;;;9.00;99.90;;;;;;8385336;28;20322;-72
2023/05/24 05:19:52;;;;;;;;;;;9.10;99.90;;;;;;8378477;28;19929;-72
2023/05/24 05:23:53;;;;;;;;;;;9.20;99.90;;;;;;8385754;28;19959;-72
2023/05/24 05:27:55;;;;;;;;;;;9.40;99.90;;;;;;8376218;28;20372;-72
2023/05/24 05:31:57;;;;;;;;;;;9.60;99.90;;;;;;8379527;28;19932;-72
2023/05/24 05:35:59;;;;;;;;;;;9.70;99.90;;;;;;8383303;28;19929;-72
2023/05/24 05:40:00;;;;;;;;;;;9.90;99.90;;;;;;8378210;28;20295;-71
2023/05/24 05:44:02;;;;;;;;;;;10.10;99.90;;;;;;8363107;28;19925;-71
2023/05/24 05:48:03;;;;;;;;;;;10.20;99.90;;;;;;8387310;28;19925;-72
2023/05/24 05:52:05;;;;;;;;;;;10.40;99.90;;;;;;8378127;28;19925;-72
2023/05/24 05:56:07;;;;;;;;;;;10.60;99.90;;;;;;8382828;28;19924;-72
2023/05/24 06:00:09;;;;;;;;;;;10.80;99.90;;;;;;8382553;28;19939;-71
2023/05/24 06:04:11;;;;;;;;;;;10.90;99.90;;;;;;8378733;28;19932;-72
2023/05/24 06:08:13;;;;;;;;;;;11.10;99.90;;;;;;8364149;28;20386;-71
2023/05/24 06:12:15;;;;;;;;;;;11.30;99.90;;;;;;8381328;28;20316;-71
2023/05/24 06:16:17;;;;;;;;;;;11.40;99.90;;;;;;8370731;28;19986;-71
2023/05/24 06:20:18;;;;;;;;;;;11.60;99.90;;;;;;8373163;28;19925;-71
2023/05/24 06:24:21;;;;;;;;;;;11.70;99.90;;;;;;8393616;28;19932;-72
2023/05/24 06:28:22;;;;;;;;;;;11.80;99.90;;;;;;8391202;28;19925;-71
2023/05/24 06:32:24;;;;;;;;;;;11.90;99.90;;;;;;8388363;28;20622;-71
2023/05/24 06:36:26;;;;;;;;;;;12.00;99.90;;;;;;8377385;28;20300;-71
2023/05/24 06:40:27;;;;;;;;;;;12.00;99.90;;;;;;8375602;28;19950;-71
2023/05/24 06:44:33;;;;;;;;;;;12.10;99.90;;;;;;8388770;28;20288;-71
2023/05/24 06:48:34;;;;;;;;;;;12.20;99.90;;;;;;8389282;28;19924;-71
2023/05/24 06:52:36;;;;;;;;;;;12.30;99.90;;;;;;8374943;28;20450;-71
2023/05/24 06:56:38;;;;;;;;;;;12.40;99.90;;;;;;8390821;28;20364;-71
2023/05/24 07:00:41;;;;;;;;;;;12.40;99.90;;;;;;8379803;28;20304;-71
2023/05/24 07:04:43;;;;;;;;;;;12.40;99.90;;;;;;8386198;28;19932;-71
2023/05/24 07:08:45;;;;;;;;;;;12.30;99.90;;;;;;8364963;28;19993;-71
2023/05/24 07:12:47;;;;;;;;;;;12.30;99.90;;;;;;8389122;28;19970;-70
2023/05/24 07:16:48;;;;;;;;;;;12.40;99.90;;;;;;8390548;28;19928;-71
2023/05/24 07:20:50;;;;;;;;;;;12.50;99.90;;;;;;8391559;28;19924;-71
2023/05/24 07:24:52;;;;;;;;;;;12.70;99.90;;;;;;8392757;28;19928;-71
2023/05/24 07:28:54;;;;;;;;;;;12.90;99.90;;;;;;8383388;28;20368;-71
2023/05/24 07:32:55;;;;;;;;;;;13.10;99.90;;;;;;8382115;28;19932;-71
2023/05/24 07:37:00;;;;;;;;;;;13.30;99.90;;;;;;8386990;28;19924;-71
2023/05/24 07:41:03;;;;;;;;;;;13.40;99.90;;;;;;8367435;28;19924;-71
2023/05/24 07:45:07;;;;;;;;;;;13.50;99.90;;;;;;8404898;28;19924;-71
2023/05/24 07:49:09;;;;;;;;;;;13.40;99.90;;;;;;8385513;28;20361;-71
2023/05/24 07:53:11;;;;;;;;;;;13.40;99.90;;;;;;8372650;28;19924;-71
2023/05/24 07:57:13;;;;;;;;;;;13.30;99.90;;;;;;8405162;28;19940;-71
2023/05/24 08:01:17;;;;;;;;;;;13.20;99.90;;;;;;8374375;28;20260;-71
2023/05/24 08:05:18;;;;;;;;;;;13.30;99.90;;;;;;8365761;28;19925;-71
2023/05/24 08:09:21;;;;;;;;;;;13.30;99.90;;;;;;8377843;28;20320;-71
2023/05/24 08:13:23;;;;;;;;;;;13.30;99.90;;;;;;8384470;28;19924;-71
2023/05/24 08:17:25;;;;;;;;;;;13.30;99.90;;;;;;8384186;28;19929;-71
2023/05/24 08:21:28;;;;;;;;;;;13.40;99.90;;;;;;8384835;28;19925;-71
2023/05/24 08:25:29;;;;;;;;;;;13.60;99.90;;;;;;8373714;28;19928;-71
2023/05/24 08:29:31;;;;;;;;;;;13.70;99.90;;;;;;8373587;28;19928;-70
2023/05/24 08:33:33;;;;;;;;;;;13.70;99.90;;;;;;8385754;28;19951;-71
2023/05/24 08:37:35;;;;;;;;;;;13.80;99.90;;;;;;8386048;28;19970;-71
2023/05/24 08:41:37;;;;;;;;;;;13.80;99.90;;;;;;8365682;28;19924;-71
2023/05/24 08:45:39;;;;;;;;;;;13.80;99.90;;;;;;8379985;28;19935;-71
2023/05/24 08:49:42;;;;;;;;;;;13.80;99.90;;;;;;8377394;28;20372;-71
2023/05/24 08:53:47;;;;;;;;;;;13.70;99.90;;;;;;8380353;28;19936;-71
2023/05/24 08:57:49;;;;;;;;;;;13.80;99.90;;;;;;8384478;28;19925;-71
2023/05/24 09:01:52;;;;;;;;;;;14.00;99.90;;;;;;8385012;28;19928;-71
2023/05/24 09:05:54;;;;;;;;;;;14.10;99.90;;;;;;8362854;28;19928;-71
2023/05/24 09:09:57;;;;;;;;;;;14.10;99.90;;;;;;8360988;28;19924;-71
2023/05/24 09:13:59;;;;;;;;;;;14.10;99.90;;;;;;8358523;28;19994;-71
2023/05/24 09:18:01;;;;;;;;;;;14.20;99.90;;;;;;8340965;28;20947;-71
2023/05/24 09:22:03;;;;;;;;;;;14.30;99.90;;;;;;8350576;28;20396;-71
2023/05/24 09:26:08;;;;;;;;;;;14.50;99.90;;;;;;8339044;28;19925;-71
2023/05/24 09:30:11;;;;;;;;;;;14.70;99.90;;;;;;8352568;28;19973;-71
2023/05/24 09:34:14;;;;;;;;;;;15.00;99.90;;;;;;8358969;28;19924;-71
2023/05/24 09:38:17;;;;;;;;;;;15.20;99.90;;;;;;8357065;28;20287;-72
2023/05/24 09:42:23;;;;;;;;;;;15.40;99.90;;;;;;8351705;28;20857;-71
2023/05/24 09:46:25;;;;;;;;;;;15.50;99.90;;;;;;8351245;28;19975;-71
2023/05/24 09:50:27;;;;;;;;;;;15.50;99.90;;;;;;8375001;28;19928;-71
2023/05/24 09:54:32;;;;;;;;;;;15.50;99.90;;;;;;8363596;28;19931;-71
2023/05/24 09:58:35;;;;;;;;;;;15.50;99.90;;;;;;8374816;28;19935;-72
2023/05/24 10:02:36;;;;;;;;;;;15.50;99.90;;;;;;8362824;28;19928;-72
2023/05/24 10:06:52;;;;;;;;;;;15.60;99.90;;;;;;8364323;28;20016;-72
2023/05/24 10:10:55;;;;;;;;;;;15.60;99.90;;;;;;8360619;28;20437;-72
2023/05/24 10:14:56;;;;;;;;;;;15.60;99.90;;;;;;8347575;28;20361;-71
2023/05/24 10:18:58;;;;;;;;;;;15.60;99.90;;;;;;8356997;28;20030;-72
2023/05/24 10:23:02;;;;;;;;;;;15.50;99.90;;;;;;8359821;28;19925;-71
2023/05/24 10:27:07;;;;;;;;;;;15.50;99.90;;;;;;8355894;28;20438;-72
2023/05/24 10:31:11;;;;;;;;;;;15.50;99.90;;;;;;8342578;28;19932;-72
2023/05/24 10:35:13;;;;;;;;;;;15.40;99.90;;;;;;8362395;28;19928;-72
2023/05/24 10:39:18;;;;;;;;;;;15.50;99.90;;;;;;8341817;28;20039;-72
2023/05/24 10:43:20;;;;;;;;;;;15.60;99.90;;;;;;8359852;28;20301;-71
2023/05/24 10:47:27;;;;;;;;;;;15.50;99.90;;;;;;8356161;28;19924;-71
2023/05/24 10:51:32;;;;;;;;;;;15.50;99.90;;;;;;8359636;28;20012;-72
2023/05/24 10:55:34;;;;;;;;;;;15.40;99.90;;;;;;8360222;28;20007;-71
2023/05/24 10:59:37;;;;;;;;;;;15.50;99.90;;;;;;8341764;28;19933;-71
2023/05/24 11:03:40;;;;;;;;;;;15.50;99.90;;;;;;8362941;28;19936;-72
2023/05/24 11:07:42;;;;;;;;;;;15.60;99.90;;;;;;8361061;28;19979;-72
2023/05/24 11:11:45;;;;;;;;;;;15.60;99.90;;;;;;8359324;28;20303;-72
2023/05/24 11:15:50;;;;;;;;;;;15.70;99.90;;;;;;8362460;28;20356;-71
2023/05/24 11:19:53;;;;;;;;;;;15.70;99.90;;;;;;8355697;28;19928;-71
2023/05/24 11:23:55;;;;;;;;;;;15.80;99.90;;;;;;8362017;28;20454;-72
2023/05/24 11:27:57;;;;;;;;;;;15.80;99.90;;;;;;8357369;28;19933;-71
2023/05/24 11:32:06;;;;;;;;;;;16.00;99.90;;;;;;8355702;28;19970;-71
2023/05/24 11:36:09;;;;;;;;;;;16.10;99.90;;;;;;8360153;28;20361;-71
2023/05/24 11:40:13;;;;;;;;;;;16.20;99.90;;;;;;8358375;28;19933;-72
2023/05/24 11:44:17;;;;;;;;;;;16.20;99.90;;;;;;8360339;28;19925;-71
2023/05/24 11:48:18;;;;;;;;;;;16.20;99.90;;;;;;8358652;28;19932;-71
2023/05/24 11:52:20;;;;;;;;;;;16.20;99.90;;;;;;8340526;28;19928;-71
2023/05/24 11:56:23;;;;;;;;;;;16.20;99.90;;;;;;8356151;28;19932;-71
2023/05/24 12:00:25;;;;;;;;;;;16.30;99.90;;;;;;8356173;28;19972;-71
2023/05/24 12:04:28;;;;;;;;;;;16.40;99.90;;;;;;8336987;28;19932;-71
2023/05/24 12:08:30;;;;;;;;;;;16.40;99.90;;;;;;8371910;28;19994;-71
2023/05/24 12:12:32;;;;;;;;;;;16.50;99.90;;;;;;8339127;28;19974;-71
2023/05/24 12:16:46;;;;;;;;;;;16.60;99.90;;;;;;8355295;28;19925;-71
2023/05/24 12:20:48;;;;;;;;;;;16.60;99.90;;;;;;8356903;28;19932;-71
2023/05/24 12:24:51;;;;;;;;;;;16.60;99.90;;;;;;8340433;28;19975;-71
2023/05/24 12:28:54;;;;;;;;;;;16.60;99.90;;;;;;8354482;28;19929;-71
2023/05/24 12:32:56;;;;;;;;;;;16.70;99.90;;;;;;8355714;28;19932;-72
2023/05/24 12:36:58;;;;;;;;;;;16.70;99.90;;;;;;8356426;28;20383;-72
2023/05/24 12:41:00;;;;;;;;;;;16.70;99.90;;;;;;8355789;28;20385;-72
2023/05/24 12:45:12;;;;;;;;;;;16.80;99.90;;;;;;8353909;28;20023;-72
2023/05/24 12:49:15;;;;;;;;;;;16.80;99.90;;;;;;8355402;28;19929;-71
2023/05/24 12:53:18;;;;;;;;;;;16.70;99.90;;;;;;8361086;28;19940;-71
2023/05/24 12:57:21;;;;;;;;;;;16.70;99.90;;;;;;8357035;28;19925;-72
2023/05/24 13:01:24;;;;;;;;;;;16.70;99.90;;;;;;8351664;28;19925;-71
2023/05/24 13:05:26;;;;;;;;;;;16.90;99.90;;;;;;8352601;28;20266;-71
2023/05/24 13:09:28;;;;;;;;;;;17.10;99.90;;;;;;8356795;28;19925;-72
2023/05/24 13:13:31;;;;;;;;;;;17.20;99.90;;;;;;8356243;28;19928;-72
2023/05/24 13:17:33;;;;;;;;;;;17.20;99.90;;;;;;8357207;28;20448;-71
2023/05/24 13:21:35;;;;;;;;;;;17.20;99.90;;;;;;8338341;28;19928;-71
2023/05/24 13:25:37;;;;;;;;;;;17.20;99.90;;;;;;8365868;28;19925;-72
2023/05/24 13:29:39;;;;;;;;;;;17.10;99.90;;;;;;8362762;28;19932;-71
2023/05/24 13:33:53;;;;;;;;;;;17.10;99.90;;;;;;8366257;28;21194;-72
2023/05/24 13:37:56;;;;;;;;;;;17.10;99.90;;;;;;8368091;28;19929;-71
2023/05/24 13:41:59;;;;;;;;;;;17.10;99.90;;;;;;8371155;28;19959;-72
2023/05/24 13:46:02;;;;;;;;;;;17.10;99.90;;;;;;8366726;28;19968;-71
2023/05/24 13:50:04;;;;;;;;;;;17.00;99.90;;;;;;8366276;28;20404;-71
2023/05/24 13:54:06;;;;;;;;;;;17.00;99.90;;;;;;8383474;28;20026;-72
2023/05/24 13:58:08;;;;;;;;;;;17.10;99.90;;;;;;8363307;28;20233;-72
2023/05/24 14:02:09;;;;;;;;;;;17.10;99.90;;;;;;8364732;28;19924;-72
2023/05/24 14:06:11;;;;;;;;;;;17.20;99.90;;;;;;8362382;28;19938;-71
2023/05/24 14:10:13;;;;;;;;;;;17.30;99.90;;;;;;8366169;28;19971;-71
2023/05/24 14:14:14;;;;;;;;;;;17.30;99.90;;;;;;8362674;28;19940;-72
2023/05/24 14:18:19;;;;;;;;;;;17.30;99.90;;;;;;8364888;28;19933;-71
2023/05/24 14:22:23;;;;;;;;;;;17.30;99.90;;;;;;8369630;28;19951;-72
2023/05/24 14:26:27;;;;;;;;;;;17.30;99.90;;;;;;8366089;28;20221;-72
2023/05/24 14:30:32;;;;;;;;;;;17.30;99.90;;;;;;8366662;28;19924;-72
2023/05/24 14:34:34;;;;;;;;;;;17.30;99.90;;;;;;8360893;28;19925;-72
2023/05/24 14:38:35;;;;;;;;;;;17.20;99.90;;;;;;8361160;28;19925;-71
2023/05/24 14:42:37;;;;;;;;;;;17.30;99.90;;;;;;8361662;28;20030;-72
2023/05/24 14:46:39;;;;;;;;;;;17.30;99.90;;;;;;8359826;28;20284;-71
2023/05/24 14:50:42;;;;;;;;;;;17.30;99.90;;;;;;8361084;28;20028;-72
2023/05/24 14:54:43;;;;;;;;;;;17.30;99.90;;;;;;8357840;28;19962;-71
2023/05/24 14:58:45;;;;;;;;;;;17.30;99.90;;;;;;8358588;28;20373;-71
2023/05/24 15:02:47;;;;;;;;;;;17.30;99.90;;;;;;8360316;28;19929;-71
2023/05/24 15:06:48;;;;;;;;;;;17.40;99.90;;;;;;8360542;28;19936;-72
2023/05/24 15:10:50;;;;;;;;;;;17.40;99.90;;;;;;8357064;28;19939;-72
2023/05/24 15:14:52;;;;;;;;;;;17.50;99.90;;;;;;8361405;28;19928;-72
2023/05/24 15:18:53;;;;;;;;;;;17.70;99.90;;;;;;8356903;28;19979;-72
2023/05/24 15:22:55;;;;;;;;;;;17.90;99.90;;;;;;8371390;28;19928;-72
2023/05/24 15:26:57;;;;;;;;;;;18.20;99.90;;;;;;8356115;28;19925;-72
2023/05/24 15:31:00;;;;;;;;;;;18.50;99.90;;;;;;8371956;28;19943;-72
2023/05/24 15:35:03;;;;;;;;;;;18.60;99.90;;;;;;8357163;28;19933;-72
2023/05/24 15:39:05;;;;;;;;;;;18.50;99.90;;;;;;8348048;28;20019;-72
2023/05/24 15:43:07;;;;;;;;;;;18.30;99.90;;;;;;8341401;28;20442;-72
2023/05/24 15:47:09;;;;;;;;;;;18.10;99.90;;;;;;8357526;28;19925;-72
2023/05/24 15:51:10;;;;;;;;;;;17.90;99.90;;;;;;8368909;28;19924;-72
2023/05/24 15:55:15;;;;;;;;;;;18.10;99.90;;;;;;8341139;28;19936;-72
2023/05/24 15:59:17;;;;;;;;;;;18.70;99.90;;;;;;8354525;28;19955;-72
2023/05/24 16:03:21;;;;;;;;;;;19.20;99.90;;;;;;8353019;28;19933;-72
2023/05/24 16:07:23;;;;;;;;;;;19.20;99.90;;;;;;8351901;28;19933;-71
2023/05/24 16:11:24;;;;;;;;;;;19.00;99.90;;;;;;8352124;28;19928;-72
2023/05/24 16:15:28;;;;;;;;;;;19.10;99.90;;;;;;8356238;28;19928;-71
2023/05/24 16:19:30;;;;;;;;;;;19.00;99.90;;;;;;8352997;28;20368;-72
2023/05/24 16:23:32;;;;;;;;;;;19.10;99.90;;;;;;8357274;28;20300;-72
2023/05/24 16:27:34;;;;;;;;;;;19.00;99.90;;;;;;8358313;28;19928;-72
2023/05/24 16:31:35;;;;;;;;;;;18.80;99.90;;;;;;8379809;28;20027;-72
2023/05/24 16:35:37;;;;;;;;;;;18.90;99.90;;;;;;8366003;28;19928;-72
2023/05/24 16:39:41;;;;;;;;;;;19.00;99.90;;;;;;8369531;28;19929;-73
2023/05/24 16:43:42;;;;;;;;;;;19.10;99.90;;;;;;8366276;28;20135;-73
2023/05/24 16:47:44;;;;;;;;;;;19.20;99.90;;;;;;8352358;28;19990;-72
2023/05/24 16:51:46;;;;;;;;;;;19.00;99.90;;;;;;8361355;28;19925;-72
2023/05/24 16:55:52;;;;;;;;;;;18.70;99.90;;;;;;8363836;28;20387;-72
2023/05/24 16:59:54;;;;;;;;;;;18.40;99.90;;;;;;8359512;28;19951;-72
2023/05/24 17:03:56;;;;;;;;;;;18.10;99.90;;;;;;8359206;28;19935;-72
2023/05/24 17:07:57;;;;;;;;;;;17.90;99.90;;;;;;8378926;28;19972;-72
2023/05/24 17:12:00;;;;;;;;;;;17.70;99.90;;;;;;8362135;28;19932;-73
2023/05/24 17:16:02;;;;;;;;;;;17.50;99.90;;;;;;8364314;28;20217;-72
2023/05/24 17:20:04;;;;;;;;;;;17.30;99.90;;;;;;8356412;28;19928;-72
2023/05/24 17:24:06;;;;;;;;;;;17.20;99.90;;;;;;8375130;28;19955;-73
2023/05/24 17:28:08;;;;;;;;;;;17.10;99.90;;;;;;8375230;28;20375;-72
2023/05/24 17:32:09;;;;;;;;;;;17.00;99.90;;;;;;8364429;28;20407;-72
2023/05/24 17:36:11;;;;;;;;;;;16.90;99.90;;;;;;8378328;28;19932;-72
2023/05/24 17:40:13;;;;;;;;;;;16.90;99.90;;;;;;8370231;28;19929;-72
2023/05/24 17:44:15;;;;;;;;;;;16.80;99.90;;;;;;8362968;28;20264;-72
2023/05/24 17:48:16;;;;;;;;;;;16.80;99.90;;;;;;8362083;28;19932;-72
2023/05/24 17:52:18;;;;;;;;;;;16.80;99.90;;;;;;8347193;28;19936;-72
2023/05/24 17:56:22;;;;;;;;;;;16.70;99.90;;;;;;8365606;28;20296;-72
2023/05/24 18:00:25;;;;;;;;;;;16.70;99.90;;;;;;8362488;28;20308;-72
2023/05/24 18:04:27;;;;;;;;;;;16.70;99.90;;;;;;8357442;28;19928;-72
2023/05/24 18:08:33;;;;;;;;;;;16.60;99.90;;;;;;8340218;28;20274;-72
2023/05/24 18:12:35;;;;;;;;;;;16.60;99.90;;;;;;8372127;28;19925;-72
2023/05/24 18:16:36;;;;;;;;;;;16.60;99.90;;;;;;8370650;28;19970;-72
2023/05/24 18:20:38;;;;;;;;;;;16.50;99.90;;;;;;8382049;28;20066;-72
2023/05/24 18:24:40;;;;;;;;;;;16.50;99.90;;;;;;8360374;28;19979;-72
2023/05/24 18:28:42;;;;;;;;;;;16.50;99.90;;;;;;8366158;28;20112;-72
2023/05/24 18:32:43;;;;;;;;;;;16.50;99.90;;;;;;8367201;28;20459;-72
2023/05/24 18:37:03;;;;;;;;;;;16.50;99.90;;;;;;8383245;28;20070;-72
2023/05/24 18:41:08;;;;;;;;;;;16.50;99.90;;;;;;8355560;28;20450;-72
2023/05/24 18:45:10;;;;;;;;;;;16.40;99.90;;;;;;8385337;28;19924;-72
2023/05/24 18:49:11;;;;;;;;;;;16.40;99.90;;;;;;8355594;28;19929;-72
2023/05/24 18:53:13;;;;;;;;;;;16.30;99.90;;;;;;8350391;28;19939;-72
2023/05/24 18:57:15;;;;;;;;;;;16.30;99.90;;;;;;8367618;28;20343;-72
2023/05/24 19:01:17;;;;;;;;;;;16.30;99.90;;;;;;8359217;28;20409;-72
2023/05/24 19:05:19;;;;;;;;;;;16.30;99.90;;;;;;8359616;28;19959;-72
2023/05/24 19:09:20;;;;;;;;;;;16.30;99.90;;;;;;8361664;28;19932;-72
2023/05/24 19:13:22;;;;;;;;;;;16.30;99.90;;;;;;8348461;28;19924;-72
2023/05/24 19:17:24;;;;;;;;;;;16.30;99.90;;;;;;8367479;28;20301;-72
2023/05/24 19:21:26;;;;;;;;;;;16.30;99.90;;;;;;8364317;28;19928;-72
2023/05/24 19:25:29;;;;;;;;;;;16.20;99.90;;;;;;8364391;28;19932;-72
2023/05/24 19:29:33;;;;;;;;;;;16.20;99.90;;;;;;8360700;28;19935;-73
2023/05/24 19:33:34;;;;;;;;;;;16.10;99.90;;;;;;8364550;28;19925;-72
2023/05/24 19:37:43;;;;;;;;;;;16.10;99.90;;;;;;8360861;28;19925;-72
2023/05/24 19:41:44;;;;;;;;;;;16.00;99.90;;;;;;8361081;28;19978;-72
2023/05/24 19:45:50;;;;;;;;;;;16.00;99.90;;;;;;8365350;28;19951;-73
2023/05/24 19:49:52;;;;;;;;;;;15.90;99.90;;;;;;8364689;28;19929;-73
2023/05/24 19:53:53;;;;;;;;;;;15.80;99.90;;;;;;8362600;28;19929;-73
2023/05/24 19:57:55;;;;;;;;;;;15.80;99.90;;;;;;8353413;28;19924;-72
2023/05/24 20:01:57;;;;;;;;;;;15.70;99.90;;;;;;8362191;28;19931;-72
2023/05/24 20:05:59;;;;;;;;;;;15.70;99.90;;;;;;8365153;28;19932;-73
2023/05/24 20:10:03;;;;;;;;;;;15.60;99.90;;;;;;8363257;28;19933;-72
2023/05/24 20:14:05;;;;;;;;;;;15.60;99.90;;;;;;8349954;28;19972;-73
2023/05/24 20:18:07;;;;;;;;;;;15.50;99.90;;;;;;8369867;28;19928;-73
2023/05/24 20:22:09;;;;;;;;;;;15.40;99.90;;;;;;8358993;28;19928;-73
2023/05/24 20:26:10;;;;;;;;;;;15.40;99.90;;;;;;8380808;28;20375;-73
2023/05/24 20:30:12;;;;;;;;;;;15.40;99.90;;;;;;8350358;28;20392;-73
2023/05/24 20:34:14;;;;;;;;;;;15.30;99.90;;;;;;8360367;28;19933;-72
2023/05/24 20:38:17;;;;;;;;;;;15.30;99.90;;;;;;8366420;28;19932;-73
2023/05/24 20:42:18;;;;;;;;;;;15.30;99.90;;;;;;8365012;28;19924;-73
2023/05/24 20:46:21;;;;;;;;;;;15.20;99.90;;;;;;8362807;28;20206;-73
2023/05/24 20:50:23;;;;;;;;;;;15.20;99.90;;;;;;8365451;28;20201;-73
2023/05/24 20:54:24;;;;;;;;;;;15.10;99.90;;;;;;8362182;28;19933;-73
2023/05/24 20:58:26;;;;;;;;;;;15.00;99.90;;;;;;8362769;28;19960;-73
2023/05/24 21:02:28;;;;;;;;;;;15.00;99.90;;;;;;8375522;28;20080;-73
2023/05/24 21:06:32;;;;;;;;;;;14.90;99.90;;;;;;8375870;28;19928;-72
2023/05/24 21:10:36;;;;;;;;;;;14.90;99.90;;;;;;8376530;28;20415;-73
2023/05/24 21:14:38;;;;;;;;;;;14.80;99.90;;;;;;8383268;28;19932;-73
2023/05/24 21:18:40;;;;;;;;;;;14.70;99.90;;;;;;8388610;28;19924;-72
2023/05/24 21:22:41;;;;;;;;;;;14.70;99.90;;;;;;8387063;28;19928;-72
2023/05/24 21:26:43;;;;;;;;;;;14.60;99.90;;;;;;8384360;28;20022;-73
2023/05/24 21:30:45;;;;;;;;;;;14.60;99.90;;;;;;8394709;28;19932;-72
2023/05/24 21:34:48;;;;;;;;;;;14.50;99.90;;;;;;8367784;28;19933;-72
2023/05/24 21:38:50;;;;;;;;;;;14.50;99.90;;;;;;8373017;28;19970;-72
2023/05/24 21:47:55;;;;;;;;;;;14.40;99.90;;;;;;8392654;28;19924;-72
2023/05/24 21:51:57;;;;;;;;;;;14.30;99.90;;;;;;8396258;28;19925;-73
2023/05/24 21:55:59;;;;;;;;;;;14.30;99.90;;;;;;8387030;28;19925;-72
2023/05/24 22:00:01;;;;;;;;;;;14.20;99.90;;;;;;8372845;28;19928;-72
2023/05/24 22:04:03;;;;;;;;;;;14.20;99.90;;;;;;8383649;28;19925;-72
2023/05/24 22:08:05;;;;;;;;;;;14.10;99.90;;;;;;8388238;28;19960;-72
2023/05/24 22:12:07;;;;;;;;;;;14.10;99.90;;;;;;8396570;28;19932;-72
2023/05/24 22:16:09;;;;;;;;;;;14.00;99.90;;;;;;8379841;28;19924;-72
2023/05/24 22:20:11;;;;;;;;;;;13.90;99.90;;;;;;8376804;28;19931;-72
2023/05/24 22:24:13;;;;;;;;;;;13.90;99.90;;;;;;8386456;28;19924;-73
2023/05/24 22:28:18;;;;;;;;;;;13.80;99.90;;;;;;8389024;28;19951;-72
2023/05/24 22:32:20;;;;;;;;;;;13.80;99.90;;;;;;8376776;28;19932;-73
2023/05/24 22:36:22;;;;;;;;;;;13.70;99.90;;;;;;8391075;28;19925;-72
2023/05/24 22:40:24;;;;;;;;;;;13.60;99.90;;;;;;8389900;28;19925;-72
2023/05/24 22:44:26;;;;;;;;;;;13.60;99.90;;;;;;8391002;28;20395;-73
2023/05/24 22:48:28;;;;;;;;;;;13.50;99.90;;;;;;8387371;28;19931;-72
2023/05/24 22:52:32;;;;;;;;;;;13.40;99.90;;;;;;8394096;28;19924;-72
2023/05/24 22:56:34;;;;;;;;;;;13.30;99.90;;;;;;8388965;28;19924;-72
2023/05/24 23:00:36;;;;;;;;;;;13.30;99.90;;;;;;8386545;28;19932;-72
2023/05/24 23:04:38;;;;;;;;;;;13.10;99.90;;;;;;8377238;28;20291;-72
2023/05/24 23:08:40;;;;;;;;;;;13.00;99.90;;;;;;8379245;28;19925;-72
2023/05/24 23:12:41;;;;;;;;;;;12.90;99.90;;;;;;8389779;28;19933;-72
2023/05/24 23:16:43;;;;;;;;;;;12.80;99.90;;;;;;8388791;28;19928;-72
2023/05/24 23:20:46;;;;;;;;;;;12.80;99.90;;;;;;8368443;28;20424;-72
2023/05/24 23:24:48;;;;;;;;;;;12.70;99.90;;;;;;8390713;28;19932;-72
2023/05/24 23:28:49;;;;;;;;;;;12.60;99.90;;;;;;8393052;28;19925;-72
2023/05/24 23:32:51;;;;;;;;;;;12.60;99.90;;;;;;8386835;28;19924;-72
2023/05/24 23:36:53;;;;;;;;;;;12.50;99.90;;;;;;8375144;28;20349;-72